createdAt,value
2022-12-07T00:00:02.653Z,10
2022-12-07T00:01:46.390Z,2
2022-12-07T00:03:30.053Z,2
2022-12-07T00:05:13.801Z,2
2022-12-07T00:06:57.466Z,3
2022-12-07T00:08:41.145Z,2
2022-12-07T00:10:24.867Z,2
2022-12-07T00:12:08.594Z,2
2022-12-07T00:13:52.262Z,3
2022-12-07T00:15:35.995Z,2
2022-12-07T00:17:19.744Z,3
2022-12-07T00:19:03.411Z,11
2022-12-07T00:20:47.080Z,11
2022-12-07T00:22:30.768Z,11
2022-12-07T00:24:14.511Z,2
2022-12-07T00:25:58.224Z,2
2022-12-07T00:27:41.878Z,2
2022-12-07T00:29:25.751Z,2
2022-12-07T00:31:09.287Z,3
2022-12-07T00:32:52.995Z,2
2022-12-07T00:34:36.699Z,2
2022-12-07T00:36:20.396Z,2
2022-12-07T00:38:04.096Z,11
2022-12-07T00:39:47.799Z,12
2022-12-07T00:41:31.579Z,11
2022-12-07T00:43:15.206Z,2
2022-12-07T00:44:58.902Z,3
2022-12-07T00:46:42.619Z,3
2022-12-07T00:48:26.444Z,3
2022-12-07T00:50:10.055Z,11
2022-12-07T00:51:53.822Z,11
2022-12-07T00:53:37.429Z,10
2022-12-07T00:55:21.141Z,11
2022-12-07T00:57:04.859Z,2
2022-12-07T00:58:48.534Z,2
2022-12-07T01:00:32.251Z,2
2022-12-07T01:02:15.929Z,3
2022-12-07T01:03:59.646Z,3
2022-12-07T01:05:43.443Z,2
2022-12-07T01:07:27.035Z,1
2022-12-07T01:09:10.746Z,2
2022-12-07T01:10:54.438Z,2
2022-12-07T01:12:38.153Z,2
2022-12-07T01:14:21.845Z,2
2022-12-07T01:16:05.551Z,3
2022-12-07T01:17:49.295Z,2
2022-12-07T01:19:32.955Z,2
2022-12-07T01:21:16.666Z,2
2022-12-07T01:23:00.367Z,2
2022-12-07T01:26:27.816Z,3
2022-12-07T01:28:11.543Z,2
2022-12-07T01:29:55.180Z,2
2022-12-07T01:31:38.882Z,1
2022-12-07T01:33:22.589Z,2
2022-12-07T01:35:06.286Z,2
2022-12-07T01:36:50.066Z,2
2022-12-07T01:38:33.690Z,3
2022-12-07T01:40:17.394Z,2
2022-12-07T01:42:01.098Z,2
2022-12-07T01:43:44.800Z,2
2022-12-07T01:45:28.509Z,2
2022-12-07T01:47:12.298Z,3
2022-12-07T01:48:55.903Z,2
2022-12-07T01:50:39.661Z,2
2022-12-07T01:52:23.373Z,2
2022-12-07T01:54:07.015Z,2
2022-12-07T01:55:50.792Z,2
2022-12-07T01:57:34.440Z,2
2022-12-07T01:59:18.128Z,2
2022-12-07T02:01:01.911Z,3
2022-12-07T02:02:45.622Z,2
2022-12-07T02:04:29.333Z,2
2022-12-07T02:06:12.948Z,2
2022-12-07T02:07:56.648Z,2
2022-12-07T02:09:40.470Z,2
2022-12-07T02:11:24.137Z,2
2022-12-07T02:13:07.750Z,2
2022-12-07T02:14:51.529Z,2
2022-12-07T02:16:35.172Z,2
2022-12-07T02:18:18.927Z,2
2022-12-07T02:20:02.584Z,2
2022-12-07T02:21:46.280Z,2
2022-12-07T02:23:29.978Z,2
2022-12-07T02:25:13.717Z,2
2022-12-07T02:26:57.379Z,3
2022-12-07T02:28:41.363Z,2
2022-12-07T02:30:24.789Z,2
2022-12-07T02:32:08.612Z,3
2022-12-07T02:33:52.296Z,2
2022-12-07T02:35:35.885Z,2
2022-12-07T02:37:19.625Z,2
2022-12-07T02:39:03.309Z,2
2022-12-07T02:40:46.996Z,2
2022-12-07T02:42:30.764Z,3
2022-12-07T02:44:14.504Z,2
2022-12-07T02:45:58.103Z,2
2022-12-07T02:47:41.804Z,2
2022-12-07T02:49:25.571Z,3
2022-12-07T02:51:09.219Z,2
2022-12-07T02:52:52.915Z,2
2022-12-07T02:54:36.626Z,1
2022-12-07T02:56:20.317Z,2
2022-12-07T02:58:04.039Z,2
2022-12-07T02:59:47.715Z,2
2022-12-07T03:01:31.436Z,2
2022-12-07T03:03:15.178Z,2
2022-12-07T03:04:58.971Z,2
2022-12-07T03:06:42.607Z,2
2022-12-07T03:08:26.278Z,2
2022-12-07T03:10:09.951Z,2
2022-12-07T03:11:53.640Z,2
2022-12-07T03:13:37.359Z,2
2022-12-07T03:15:21.057Z,2
2022-12-07T03:17:04.758Z,2
2022-12-07T03:18:48.465Z,2
2022-12-07T03:20:32.213Z,2
2022-12-07T03:22:15.910Z,2
2022-12-07T03:23:59.623Z,3
2022-12-07T03:25:43.286Z,2
2022-12-07T03:27:26.970Z,2
2022-12-07T03:29:10.698Z,2
2022-12-07T03:30:54.386Z,2
2022-12-07T03:32:38.087Z,2
2022-12-07T03:34:21.781Z,2
2022-12-07T03:36:05.498Z,1
2022-12-07T03:37:49.192Z,2
2022-12-07T03:39:32.935Z,2
2022-12-07T03:41:16.610Z,2
2022-12-07T03:44:43.989Z,2
2022-12-07T03:46:27.692Z,2
2022-12-07T03:48:11.431Z,2
2022-12-07T03:49:55.151Z,1
2022-12-07T03:51:38.815Z,2
2022-12-07T03:53:22.504Z,2
2022-12-07T03:55:06.221Z,2
2022-12-07T03:56:49.917Z,2
2022-12-07T03:58:33.684Z,2
2022-12-07T04:00:17.332Z,2
2022-12-07T04:02:01.026Z,2
2022-12-07T04:03:44.722Z,2
2022-12-07T04:05:28.442Z,2
2022-12-07T04:07:12.152Z,2
2022-12-07T04:08:55.839Z,1
2022-12-07T04:10:39.576Z,2
2022-12-07T04:12:23.243Z,2
2022-12-07T04:14:06.946Z,2
2022-12-07T04:15:50.656Z,2
2022-12-07T04:17:34.347Z,2
2022-12-07T04:19:18.060Z,2
2022-12-07T04:21:01.753Z,2
2022-12-07T04:22:45.451Z,2
2022-12-07T04:24:29.161Z,2
2022-12-07T04:26:12.862Z,1
2022-12-07T04:27:56.568Z,2
2022-12-07T04:29:40.276Z,1
2022-12-07T04:31:23.968Z,2
2022-12-07T04:33:07.675Z,2
2022-12-07T04:34:51.387Z,1
2022-12-07T04:36:35.074Z,2
2022-12-07T04:38:18.783Z,2
2022-12-07T04:40:02.490Z,1
2022-12-07T04:41:46.194Z,2
2022-12-07T04:43:29.897Z,2
2022-12-07T04:45:13.650Z,2
2022-12-07T04:46:57.334Z,2
2022-12-07T04:48:41.006Z,1
2022-12-07T04:50:24.703Z,1
2022-12-07T04:52:08.410Z,2
2022-12-07T04:53:52.110Z,2
2022-12-07T04:55:35.858Z,2
2022-12-07T04:57:19.577Z,2
2022-12-07T04:59:03.212Z,2
2022-12-07T05:00:46.929Z,2
2022-12-07T05:02:30.630Z,2
2022-12-07T05:04:14.331Z,2
2022-12-07T05:05:58.035Z,2
2022-12-07T05:07:41.732Z,2
2022-12-07T05:09:25.478Z,2
2022-12-07T05:11:09.184Z,2
2022-12-07T05:12:52.839Z,1
2022-12-07T05:14:36.556Z,2
2022-12-07T05:16:20.251Z,3
2022-12-07T05:18:03.946Z,1
2022-12-07T05:19:47.653Z,2
2022-12-07T05:21:31.361Z,2
2022-12-07T05:23:15.059Z,1
2022-12-07T05:24:58.761Z,1
2022-12-07T05:26:42.544Z,1
2022-12-07T05:28:26.168Z,2
2022-12-07T05:30:09.890Z,2
2022-12-07T05:31:53.578Z,2
2022-12-07T05:33:37.274Z,3
2022-12-07T05:35:20.983Z,2
2022-12-07T05:37:04.673Z,2
2022-12-07T05:38:48.378Z,2
2022-12-07T05:40:32.088Z,3
2022-12-07T05:42:15.792Z,2
2022-12-07T05:43:59.491Z,2
2022-12-07T05:45:43.187Z,3
2022-12-07T05:47:27.045Z,1
2022-12-07T05:49:10.642Z,2
2022-12-07T05:50:54.317Z,2
2022-12-07T05:52:38.007Z,2
2022-12-07T05:54:21.708Z,2
2022-12-07T05:56:05.403Z,2
2022-12-07T05:57:49.119Z,2
2022-12-07T05:59:32.886Z,3
2022-12-07T06:01:16.537Z,3
2022-12-07T06:03:00.224Z,3
2022-12-07T06:04:43.921Z,3
2022-12-07T06:06:27.625Z,3
2022-12-07T06:08:11.337Z,2
2022-12-07T06:09:55.038Z,3
2022-12-07T06:11:38.730Z,2
2022-12-07T06:13:22.432Z,3
2022-12-07T06:15:06.135Z,3
2022-12-07T06:16:49.844Z,2
2022-12-07T06:18:33.541Z,3
2022-12-07T06:20:17.332Z,3
2022-12-07T06:22:00.955Z,3
2022-12-07T06:23:44.651Z,2
2022-12-07T06:25:28.419Z,2
2022-12-07T06:27:12.213Z,3
2022-12-07T06:28:55.765Z,3
2022-12-07T06:30:39.576Z,3
2022-12-07T06:32:23.230Z,3
2022-12-07T06:34:06.943Z,4
2022-12-07T06:35:50.595Z,3
2022-12-07T06:37:34.310Z,4
2022-12-07T06:39:17.992Z,5
2022-12-07T06:41:01.708Z,5
2022-12-07T06:42:45.401Z,5
2022-12-07T06:44:29.157Z,6
2022-12-07T06:46:12.825Z,6
2022-12-07T06:47:56.510Z,6
2022-12-07T06:49:40.212Z,8
2022-12-07T06:51:24.014Z,9
2022-12-07T06:53:07.612Z,10
2022-12-07T06:54:51.330Z,12
2022-12-07T06:56:35.086Z,14
2022-12-07T06:58:18.726Z,16
2022-12-07T07:00:02.433Z,16
2022-12-07T07:01:46.130Z,20
2022-12-07T07:03:29.933Z,23
2022-12-07T07:05:13.651Z,25
2022-12-07T07:06:57.244Z,29
2022-12-07T07:08:40.947Z,32
2022-12-07T07:10:24.646Z,36
2022-12-07T07:12:08.400Z,41
2022-12-07T07:13:52.060Z,51
2022-12-07T07:15:35.777Z,61
2022-12-07T07:17:19.554Z,62
2022-12-07T07:19:03.240Z,62
2022-12-07T07:20:46.878Z,66
2022-12-07T07:22:30.582Z,71
2022-12-07T07:24:14.442Z,75
2022-12-07T07:25:58.064Z,78
2022-12-07T07:27:41.718Z,81
2022-12-07T07:29:25.453Z,83
2022-12-07T07:31:09.092Z,87
2022-12-07T07:32:52.822Z,93
2022-12-07T07:34:36.559Z,98
2022-12-07T07:36:20.258Z,102
2022-12-07T07:38:03.888Z,107
2022-12-07T07:39:47.603Z,113
2022-12-07T07:41:31.370Z,119
2022-12-07T07:43:14.991Z,126
2022-12-07T07:44:58.717Z,131
2022-12-07T07:46:42.511Z,136
2022-12-07T07:48:26.119Z,141
2022-12-07T07:50:09.817Z,145
2022-12-07T07:51:53.505Z,150
2022-12-07T07:53:37.235Z,154
2022-12-07T07:55:20.952Z,161
2022-12-07T07:57:04.687Z,168
2022-12-07T07:58:48.344Z,177
2022-12-07T08:00:32.021Z,188
2022-12-07T08:02:15.891Z,196
2022-12-07T08:03:59.516Z,205
2022-12-07T08:05:43.239Z,214
2022-12-07T08:07:26.995Z,226
2022-12-07T08:09:10.612Z,238
2022-12-07T08:10:54.292Z,254
2022-12-07T08:12:38.005Z,264
2022-12-07T08:14:21.641Z,275
2022-12-07T08:16:05.351Z,285
2022-12-07T08:17:49.077Z,298
2022-12-07T08:19:32.762Z,312
2022-12-07T08:21:16.507Z,325
2022-12-07T08:23:00.240Z,334
2022-12-07T08:24:43.992Z,339
2022-12-07T08:26:27.673Z,349
2022-12-07T08:28:11.407Z,360
2022-12-07T08:29:54.959Z,369
2022-12-07T08:31:38.801Z,383
2022-12-07T08:33:22.463Z,397
2022-12-07T08:35:06.235Z,410
2022-12-07T08:36:49.857Z,421
2022-12-07T08:38:33.506Z,433
2022-12-07T08:40:17.373Z,448
2022-12-07T08:42:00.890Z,464
2022-12-07T08:43:44.775Z,479
2022-12-07T08:45:28.339Z,490
2022-12-07T08:47:12.094Z,504
2022-12-07T08:48:55.921Z,520
2022-12-07T08:50:39.457Z,530
2022-12-07T08:52:23.100Z,531
2022-12-07T08:54:06.874Z,533
2022-12-07T08:55:50.518Z,548
2022-12-07T08:57:34.291Z,567
2022-12-07T08:59:17.913Z,576
2022-12-07T09:01:01.648Z,587
2022-12-07T09:02:45.475Z,602
2022-12-07T09:04:29.023Z,609
2022-12-07T09:06:12.721Z,613
2022-12-07T09:07:56.426Z,618
2022-12-07T09:09:40.331Z,620
2022-12-07T09:11:23.967Z,621
2022-12-07T09:13:07.700Z,623
2022-12-07T09:14:51.293Z,626
2022-12-07T09:16:35.089Z,627
2022-12-07T09:18:18.654Z,627
2022-12-07T09:20:02.336Z,625
2022-12-07T09:21:46.176Z,629
2022-12-07T09:23:29.905Z,632
2022-12-07T09:25:13.514Z,635
2022-12-07T09:26:57.178Z,639
2022-12-07T09:28:41.204Z,647
2022-12-07T09:30:24.645Z,654
2022-12-07T09:32:08.265Z,664
2022-12-07T09:33:52.010Z,679
2022-12-07T09:35:35.720Z,696
2022-12-07T09:37:19.477Z,710
2022-12-07T09:39:03.065Z,729
2022-12-07T09:40:46.840Z,736
2022-12-07T09:42:30.624Z,736
2022-12-07T09:44:14.309Z,736
2022-12-07T09:45:58.032Z,735
2022-12-07T09:47:41.672Z,733
2022-12-07T09:49:25.287Z,736
2022-12-07T09:51:09.160Z,736
2022-12-07T09:52:52.841Z,736
2022-12-07T09:54:36.427Z,735
2022-12-07T09:56:20.106Z,735
2022-12-07T09:58:03.923Z,736
2022-12-07T09:59:47.512Z,735
2022-12-07T10:01:31.427Z,727
2022-12-07T10:03:15.036Z,736
2022-12-07T10:04:58.617Z,735
2022-12-07T10:06:42.367Z,736
2022-12-07T10:08:26.025Z,735
2022-12-07T10:10:09.741Z,735
2022-12-07T10:11:53.415Z,735
2022-12-07T10:13:37.128Z,735
2022-12-07T10:15:20.856Z,735
2022-12-07T10:17:04.618Z,735
2022-12-07T10:18:48.370Z,735
2022-12-07T10:20:31.977Z,736
2022-12-07T10:22:15.724Z,736
2022-12-07T10:23:59.442Z,735
2022-12-07T10:25:43.146Z,735
2022-12-07T10:27:26.930Z,735
2022-12-07T10:29:10.456Z,736
2022-12-07T10:30:54.308Z,736
2022-12-07T10:32:37.868Z,735
2022-12-07T10:34:21.553Z,734
2022-12-07T10:36:05.334Z,735
2022-12-07T10:37:48.974Z,726
2022-12-07T10:39:32.770Z,698
2022-12-07T10:41:16.368Z,674
2022-12-07T10:43:00.082Z,656
2022-12-07T10:44:43.766Z,633
2022-12-07T10:46:27.687Z,609
2022-12-07T10:48:11.193Z,605
2022-12-07T10:49:54.943Z,604
2022-12-07T10:51:38.618Z,593
2022-12-07T10:53:22.328Z,596
2022-12-07T10:55:06.002Z,602
2022-12-07T10:56:49.701Z,602
2022-12-07T10:58:33.432Z,610
2022-12-07T11:00:17.154Z,619
2022-12-07T11:02:00.880Z,625
2022-12-07T11:05:28.257Z,637
2022-12-07T11:07:11.997Z,640
2022-12-07T11:08:55.778Z,645
2022-12-07T11:10:39.487Z,668
2022-12-07T11:12:23.018Z,700
2022-12-07T11:15:50.443Z,716
2022-12-07T11:17:34.122Z,722
2022-12-07T11:19:18.268Z,734
2022-12-07T11:21:01.691Z,728
2022-12-07T11:22:45.242Z,727
2022-12-07T11:24:29.097Z,675
2022-12-07T11:26:12.807Z,607
2022-12-07T11:27:56.476Z,566
2022-12-07T11:29:40.265Z,530
2022-12-07T11:31:23.888Z,505
2022-12-07T11:34:51.334Z,474
2022-12-07T11:36:35.030Z,451
2022-12-07T11:38:18.707Z,427
2022-12-07T11:40:02.441Z,417
2022-12-07T11:41:46.197Z,417
2022-12-07T11:43:29.673Z,424
2022-12-07T11:45:13.528Z,444
2022-12-07T11:46:57.228Z,458
2022-12-07T11:48:40.933Z,470
2022-12-07T11:50:24.710Z,486
2022-12-07T11:52:08.328Z,491
2022-12-07T11:53:51.899Z,482
2022-12-07T11:55:35.755Z,487
2022-12-07T11:57:19.475Z,502
2022-12-07T11:59:03.202Z,500
2022-12-07T12:00:46.824Z,480
2022-12-07T12:02:30.503Z,473
2022-12-07T12:04:14.242Z,479
2022-12-07T12:05:57.889Z,481
2022-12-07T12:07:41.507Z,467
2022-12-07T12:09:25.197Z,442
2022-12-07T12:11:08.978Z,406
2022-12-07T12:12:52.606Z,392
2022-12-07T12:14:36.307Z,377
2022-12-07T12:16:20.140Z,375
2022-12-07T12:18:03.758Z,380
2022-12-07T12:19:47.422Z,370
2022-12-07T12:21:31.212Z,347
2022-12-07T12:23:14.973Z,334
2022-12-07T12:24:58.666Z,327
2022-12-07T12:26:42.244Z,311
2022-12-07T12:28:25.933Z,294
2022-12-07T12:30:09.643Z,287
2022-12-07T12:31:53.332Z,279
2022-12-07T12:33:37.096Z,276
2022-12-07T12:35:20.748Z,277
2022-12-07T12:37:04.448Z,289
2022-12-07T12:38:48.149Z,302
2022-12-07T12:40:31.850Z,318
2022-12-07T12:42:15.554Z,327
2022-12-07T12:43:59.299Z,339
2022-12-07T12:45:42.955Z,340
2022-12-07T12:47:26.757Z,335
2022-12-07T12:49:10.369Z,329
2022-12-07T12:50:54.064Z,321
2022-12-07T12:52:37.773Z,308
2022-12-07T12:54:21.473Z,290
2022-12-07T12:56:05.183Z,282
2022-12-07T12:57:48.878Z,294
2022-12-07T12:59:32.634Z,319
2022-12-07T13:01:16.421Z,354
2022-12-07T13:02:59.990Z,396
2022-12-07T13:04:43.681Z,431
2022-12-07T13:06:27.395Z,485
2022-12-07T13:08:11.097Z,553
2022-12-07T13:09:54.905Z,583
2022-12-07T13:11:38.545Z,595
2022-12-07T13:13:22.207Z,599
2022-12-07T13:15:05.904Z,591
2022-12-07T13:16:49.617Z,581
2022-12-07T13:20:17.058Z,545
2022-12-07T13:22:00.714Z,549
2022-12-07T13:23:44.414Z,553
2022-12-07T13:25:28.121Z,526
2022-12-07T13:27:11.825Z,506
2022-12-07T13:28:55.572Z,501
2022-12-07T13:30:39.226Z,522
2022-12-07T13:32:23.094Z,543
2022-12-07T13:34:06.707Z,526
2022-12-07T13:35:50.414Z,506
2022-12-07T13:37:34.043Z,501
2022-12-07T13:39:17.741Z,489
2022-12-07T13:41:01.455Z,489
2022-12-07T13:42:45.145Z,484
2022-12-07T13:44:28.854Z,483
2022-12-07T13:46:12.557Z,482
2022-12-07T13:47:56.341Z,457
2022-12-07T13:49:39.963Z,447
2022-12-07T13:51:23.741Z,450
2022-12-07T13:53:07.453Z,453
2022-12-07T13:54:51.115Z,450
2022-12-07T13:56:34.777Z,436
2022-12-07T13:58:18.487Z,434
2022-12-07T14:00:02.224Z,443
2022-12-07T14:01:45.953Z,448
2022-12-07T14:03:29.593Z,447
2022-12-07T14:05:13.288Z,431
2022-12-07T14:06:56.979Z,414
2022-12-07T14:08:40.814Z,402
2022-12-07T14:10:24.402Z,393
2022-12-07T14:12:08.098Z,391
2022-12-07T14:13:51.815Z,388
2022-12-07T14:15:35.500Z,384
2022-12-07T14:17:19.201Z,389
2022-12-07T14:19:03.005Z,379
2022-12-07T14:20:46.677Z,353
2022-12-07T14:22:30.397Z,340
2022-12-07T14:24:14.098Z,299
2022-12-07T14:25:57.710Z,282
2022-12-07T14:27:41.420Z,256
2022-12-07T14:29:25.116Z,235
2022-12-07T14:31:08.821Z,209
2022-12-07T14:32:52.528Z,187
2022-12-07T14:34:36.231Z,168
2022-12-07T14:36:20.031Z,156
2022-12-07T14:38:03.703Z,146
2022-12-07T14:39:47.333Z,140
2022-12-07T14:41:31.043Z,138
2022-12-07T14:43:14.744Z,141
2022-12-07T14:44:58.468Z,142
2022-12-07T14:46:42.152Z,136
2022-12-07T14:48:25.852Z,123
2022-12-07T14:50:09.612Z,109
2022-12-07T14:51:53.264Z,100
2022-12-07T14:53:36.975Z,93
2022-12-07T14:55:20.705Z,87
2022-12-07T14:57:04.547Z,81
2022-12-07T14:58:48.136Z,75
2022-12-07T15:00:31.975Z,69
2022-12-07T15:02:15.579Z,64
2022-12-07T15:03:59.225Z,60
2022-12-07T15:05:42.887Z,56
2022-12-07T15:07:26.577Z,52
2022-12-07T15:09:10.302Z,53
2022-12-07T15:10:53.998Z,67
2022-12-07T15:12:37.754Z,78
2022-12-07T15:14:21.385Z,73
2022-12-07T15:16:05.169Z,67
2022-12-07T15:17:48.821Z,63
2022-12-07T15:19:32.637Z,62
2022-12-07T15:21:16.369Z,57
2022-12-07T15:23:00.049Z,43
2022-12-07T15:24:43.620Z,29
2022-12-07T15:26:27.304Z,22
2022-12-07T15:28:11.081Z,19
2022-12-07T15:29:54.794Z,15
2022-12-07T15:31:38.414Z,12
2022-12-07T15:33:22.253Z,11
2022-12-07T15:35:05.948Z,10
2022-12-07T15:36:49.526Z,10
2022-12-07T15:38:33.283Z,8
2022-12-07T15:40:17.065Z,8
2022-12-07T15:42:00.786Z,7
2022-12-07T15:43:44.453Z,5
2022-12-07T15:45:28.148Z,5
2022-12-07T15:47:11.804Z,4
2022-12-07T15:48:55.443Z,4
2022-12-07T15:50:39.216Z,3
2022-12-07T15:52:22.857Z,3
2022-12-07T15:54:06.615Z,4
2022-12-07T15:55:50.357Z,3
2022-12-07T15:57:33.972Z,3
2022-12-07T15:59:17.779Z,3
2022-12-07T16:01:01.367Z,2
2022-12-07T16:02:45.194Z,3
2022-12-07T16:04:28.836Z,2
2022-12-07T16:06:12.636Z,3
2022-12-07T16:07:56.315Z,2
2022-12-07T16:09:40.019Z,3
2022-12-07T16:11:23.600Z,3
2022-12-07T16:13:07.338Z,2
2022-12-07T16:14:50.983Z,3
2022-12-07T16:16:34.697Z,3
2022-12-07T16:18:18.511Z,2
2022-12-07T16:20:02.115Z,3
2022-12-07T16:21:45.886Z,3
2022-12-07T16:23:29.522Z,2
2022-12-07T16:25:13.271Z,3
2022-12-07T16:26:57.078Z,3
2022-12-07T16:28:40.610Z,3
2022-12-07T16:30:24.313Z,3
2022-12-07T16:32:08.032Z,2
2022-12-07T16:33:51.819Z,2
2022-12-07T16:35:35.459Z,2
2022-12-07T16:37:19.115Z,3
2022-12-07T16:39:02.828Z,3
2022-12-07T16:40:46.711Z,2
2022-12-07T16:42:30.402Z,11
2022-12-07T16:44:14.129Z,11
2022-12-07T16:47:41.520Z,8
2022-12-07T16:49:25.210Z,12
2022-12-07T16:51:08.845Z,11
2022-12-07T16:52:52.595Z,11
2022-12-07T16:54:36.272Z,11
2022-12-07T16:56:19.977Z,11
2022-12-07T16:58:03.615Z,11
2022-12-07T16:59:47.410Z,11
2022-12-07T17:01:31.085Z,12
2022-12-07T17:03:14.732Z,12
2022-12-07T17:04:58.443Z,11
2022-12-07T17:06:42.099Z,11
2022-12-07T17:08:25.929Z,12
2022-12-07T17:10:09.471Z,12
2022-12-07T17:11:53.177Z,12
2022-12-07T17:13:36.967Z,12
2022-12-07T17:15:20.651Z,11
2022-12-07T17:17:04.298Z,11
2022-12-07T17:18:48.128Z,12
2022-12-07T17:20:31.711Z,12
2022-12-07T17:22:15.406Z,12
2022-12-07T17:23:59.115Z,12
2022-12-07T17:25:42.800Z,12
2022-12-07T17:27:26.519Z,12
2022-12-07T17:29:10.209Z,11
2022-12-07T17:30:53.907Z,12
2022-12-07T17:32:37.610Z,12
2022-12-07T17:34:21.457Z,11
2022-12-07T17:36:05.038Z,12
2022-12-07T17:37:48.725Z,12
2022-12-07T17:39:32.485Z,12
2022-12-07T17:41:16.116Z,11
2022-12-07T17:42:59.831Z,12
2022-12-07T17:44:43.526Z,11
2022-12-07T17:46:27.235Z,12
2022-12-07T17:48:10.989Z,12
2022-12-07T17:49:54.636Z,11
2022-12-07T17:51:38.341Z,12
2022-12-07T17:53:22.117Z,12
2022-12-07T17:55:05.749Z,12
2022-12-07T17:56:49.460Z,12
2022-12-07T17:58:33.164Z,12
2022-12-07T18:00:16.863Z,12
2022-12-07T18:02:00.562Z,12
2022-12-07T18:03:44.275Z,12
2022-12-07T18:05:28.024Z,12
2022-12-07T18:07:11.670Z,11
2022-12-07T18:08:55.473Z,12
2022-12-07T18:10:39.076Z,12
2022-12-07T18:12:22.784Z,12
2022-12-07T18:14:06.514Z,13
2022-12-07T18:15:50.197Z,12
2022-12-07T18:17:33.948Z,12
2022-12-07T18:19:17.703Z,10
2022-12-07T18:21:01.282Z,12
2022-12-07T18:22:44.991Z,12
2022-12-07T18:24:28.694Z,12
2022-12-07T18:26:12.393Z,12
2022-12-07T18:27:56.108Z,12
2022-12-07T18:29:39.855Z,12
2022-12-07T18:31:23.548Z,12
2022-12-07T18:33:07.202Z,12
2022-12-07T18:34:50.926Z,12
2022-12-07T18:36:34.610Z,12
2022-12-07T18:38:18.316Z,12
2022-12-07T18:40:02.059Z,12
2022-12-07T18:41:45.770Z,13
2022-12-07T18:43:29.430Z,12
2022-12-07T18:45:13.139Z,12
2022-12-07T18:46:56.833Z,15
2022-12-07T18:48:40.539Z,15
2022-12-07T18:50:24.232Z,15
2022-12-07T18:52:07.939Z,15
2022-12-07T18:53:51.681Z,15
2022-12-07T18:55:35.443Z,15
2022-12-07T18:57:19.053Z,15
2022-12-07T18:59:02.754Z,14
2022-12-07T19:00:46.568Z,14
2022-12-07T19:02:30.171Z,15
2022-12-07T19:04:13.916Z,15
2022-12-07T19:05:57.562Z,15
2022-12-07T19:07:41.328Z,15
2022-12-07T19:09:24.972Z,15
2022-12-07T19:11:08.676Z,14
2022-12-07T19:12:52.382Z,15
2022-12-07T19:14:36.125Z,14
2022-12-07T19:16:19.788Z,14
2022-12-07T19:18:03.483Z,14
2022-12-07T19:19:47.357Z,12
2022-12-07T19:21:30.930Z,13
2022-12-07T19:23:14.643Z,14
2022-12-07T19:24:58.284Z,14
2022-12-07T19:26:42.000Z,15
2022-12-07T19:28:25.697Z,15
2022-12-07T19:30:09.518Z,13
2022-12-07T19:31:53.143Z,14
2022-12-07T19:33:36.817Z,14
2022-12-07T19:35:20.573Z,14
2022-12-07T19:37:04.216Z,14
2022-12-07T19:38:47.919Z,14
2022-12-07T19:40:31.625Z,14
2022-12-07T19:42:15.425Z,14
2022-12-07T19:43:59.026Z,14
2022-12-07T19:45:42.778Z,14
2022-12-07T19:47:26.496Z,14
2022-12-07T19:49:10.127Z,13
2022-12-07T19:50:53.831Z,14
2022-12-07T19:52:37.573Z,14
2022-12-07T19:54:21.275Z,14
2022-12-07T19:56:04.956Z,15
2022-12-07T19:57:48.708Z,15
2022-12-07T19:59:32.410Z,14
2022-12-07T20:01:16.170Z,14
2022-12-07T20:02:59.750Z,14
2022-12-07T20:04:43.449Z,15
2022-12-07T20:06:27.193Z,14
2022-12-07T20:08:10.868Z,14
2022-12-07T20:09:54.593Z,14
2022-12-07T20:11:38.275Z,14
2022-12-07T20:13:21.968Z,14
2022-12-07T20:15:05.666Z,14
2022-12-07T20:16:49.390Z,14
2022-12-07T20:18:33.086Z,14
2022-12-07T20:20:16.831Z,14
2022-12-07T20:22:00.575Z,14
2022-12-07T20:23:44.232Z,13
2022-12-07T20:25:27.881Z,13
2022-12-07T20:27:11.608Z,13
2022-12-07T20:28:55.284Z,14
2022-12-07T20:30:38.999Z,14
2022-12-07T20:32:22.799Z,14
2022-12-07T20:34:06.441Z,15
2022-12-07T20:35:50.232Z,14
2022-12-07T20:37:33.861Z,14
2022-12-07T20:39:17.581Z,13
2022-12-07T20:41:01.220Z,14
2022-12-07T20:42:44.908Z,14
2022-12-07T20:44:28.625Z,15
2022-12-07T20:46:12.331Z,5
2022-12-07T20:47:56.010Z,11
2022-12-07T20:49:39.839Z,11
2022-12-07T20:51:23.424Z,12
2022-12-07T20:53:07.127Z,11
2022-12-07T20:54:50.895Z,12
2022-12-07T20:56:34.591Z,11
2022-12-07T20:58:18.245Z,12
2022-12-07T21:00:01.944Z,3
2022-12-07T21:01:45.646Z,11
2022-12-07T21:03:29.352Z,12
2022-12-07T21:05:13.143Z,12
2022-12-07T21:06:56.779Z,11
2022-12-07T21:08:40.457Z,12
2022-12-07T21:10:24.221Z,5
2022-12-07T21:12:07.893Z,5
2022-12-07T21:13:51.706Z,5
2022-12-07T21:15:35.264Z,4
2022-12-07T21:17:19.021Z,5
2022-12-07T21:19:02.733Z,6
2022-12-07T21:20:46.437Z,5
2022-12-07T21:22:30.204Z,5
2022-12-07T21:24:13.829Z,5
2022-12-07T21:25:57.483Z,4
2022-12-07T21:27:41.235Z,5
2022-12-07T21:29:24.988Z,5
2022-12-07T21:31:08.644Z,4
2022-12-07T21:32:52.391Z,4
2022-12-07T21:34:36.160Z,5
2022-12-07T21:36:19.701Z,5
2022-12-07T21:38:03.411Z,4
2022-12-07T21:39:47.201Z,5
2022-12-07T21:41:30.898Z,4
2022-12-07T21:43:14.502Z,5
2022-12-07T21:44:58.303Z,5
2022-12-07T21:46:41.915Z,5
2022-12-07T21:48:25.764Z,5
2022-12-07T21:50:09.456Z,4
2022-12-07T21:51:53.177Z,5
2022-12-07T21:53:36.751Z,5
2022-12-07T21:55:20.545Z,5
2022-12-07T21:57:04.194Z,5
2022-12-07T21:58:47.887Z,4
2022-12-07T22:00:31.613Z,5
2022-12-07T22:02:15.380Z,4
2022-12-07T22:03:59.015Z,4
2022-12-07T22:05:42.649Z,4
2022-12-07T22:07:26.491Z,3
2022-12-07T22:09:10.235Z,4
2022-12-07T22:10:53.752Z,4
2022-12-07T22:12:37.459Z,4
2022-12-07T22:14:21.158Z,4
2022-12-07T22:16:04.868Z,3
2022-12-07T22:17:48.570Z,3
2022-12-07T22:19:32.357Z,4
2022-12-07T22:21:15.969Z,4
2022-12-07T22:22:59.697Z,4
2022-12-07T22:24:43.409Z,4
2022-12-07T22:26:27.133Z,4
2022-12-07T22:28:10.780Z,4
2022-12-07T22:29:54.483Z,3
2022-12-07T22:31:38.196Z,4
2022-12-07T22:33:21.894Z,3
2022-12-07T22:35:05.701Z,3
2022-12-07T22:36:49.298Z,3
2022-12-07T22:38:33.002Z,4
2022-12-07T22:40:16.762Z,4
2022-12-07T22:42:00.510Z,3
2022-12-07T22:43:44.136Z,4
2022-12-07T22:45:27.841Z,3
2022-12-07T22:47:11.596Z,4
2022-12-07T22:48:55.422Z,3
2022-12-07T22:50:38.965Z,3
2022-12-07T22:52:22.623Z,4
2022-12-07T22:54:06.450Z,3
2022-12-07T22:55:50.098Z,3
2022-12-07T22:57:33.736Z,4
2022-12-07T22:59:17.508Z,4
2022-12-07T23:01:01.130Z,4
2022-12-07T23:02:44.859Z,3
2022-12-07T23:04:28.619Z,3
2022-12-07T23:06:12.336Z,4
2022-12-07T23:07:56.017Z,4
2022-12-07T23:09:39.766Z,4
2022-12-07T23:11:23.345Z,4
2022-12-07T23:13:07.051Z,3
2022-12-07T23:14:50.760Z,4
2022-12-07T23:16:34.457Z,10
2022-12-07T23:18:18.179Z,12
2022-12-07T23:20:01.926Z,11
2022-12-07T23:21:45.663Z,11
2022-12-07T23:23:29.289Z,3
2022-12-07T23:25:13.045Z,2
2022-12-07T23:26:56.672Z,2
2022-12-07T23:28:40.381Z,3
2022-12-07T23:30:24.088Z,2
2022-12-07T23:32:07.811Z,3
2022-12-07T23:33:51.504Z,2
2022-12-07T23:35:35.181Z,2
2022-12-07T23:37:19.043Z,2
2022-12-07T23:39:02.654Z,3
2022-12-07T23:40:46.288Z,2
2022-12-07T23:42:29.987Z,3
2022-12-07T23:44:13.775Z,3
2022-12-07T23:45:57.407Z,3
2022-12-07T23:47:41.096Z,2
2022-12-07T23:49:24.921Z,3
2022-12-07T23:51:08.587Z,11
2022-12-07T23:52:52.235Z,11
2022-12-07T23:54:36.007Z,11
2022-12-07T23:56:19.658Z,2
2022-12-07T23:58:03.388Z,2
2022-12-07T23:59:47.039Z,2
